sensor_id;sensor_type;location;lat;lon;timestamp;P1;durP1;ratioP1;P2;durP2;ratioP2
12385;SDS011;6257;57.634;18.310;2023-03-01T00:00:05;1.60;;;0.80;;
12385;SDS011;6257;57.634;18.310;2023-03-01T00:02:33;1.00;;;0.90;;
12385;SDS011;6257;57.634;18.310;2023-03-01T00:05:00;2.10;;;0.90;;
12385;SDS011;6257;57.634;18.310;2023-03-01T00:07:29;1.50;;;0.80;;
12385;SDS011;6257;57.634;18.310;2023-03-01T00:09:56;1.10;;;0.87;;
12385;SDS011;6257;57.634;18.310;2023-03-01T00:12:23;2.03;;;0.80;;
12385;SDS011;6257;57.634;18.310;2023-03-01T00:14:50;1.93;;;0.67;;
12385;SDS011;6257;57.634;18.310;2023-03-01T00:17:17;1.80;;;0.50;;
12385;SDS011;6257;57.634;18.310;2023-03-01T00:19:44;0.43;;;0.40;;
12385;SDS011;6257;57.634;18.310;2023-03-01T00:22:11;0.87;;;0.70;;
12385;SDS011;6257;57.634;18.310;2023-03-01T00:24:39;0.90;;;0.53;;
12385;SDS011;6257;57.634;18.310;2023-03-01T00:27:07;1.97;;;0.70;;
12385;SDS011;6257;57.634;18.310;2023-03-01T00:29:34;0.77;;;0.50;;
12385;SDS011;6257;57.634;18.310;2023-03-01T00:32:01;0.67;;;0.63;;
12385;SDS011;6257;57.634;18.310;2023-03-01T00:34:28;1.17;;;0.60;;
12385;SDS011;6257;57.634;18.310;2023-03-01T00:36:55;1.03;;;0.70;;
12385;SDS011;6257;57.634;18.310;2023-03-01T00:39:30;1.50;;;0.80;;
12385;SDS011;6257;57.634;18.310;2023-03-01T00:41:59;1.67;;;0.80;;
12385;SDS011;6257;57.634;18.310;2023-03-01T00:44:29;2.33;;;0.87;;
12385;SDS011;6257;57.634;18.310;2023-03-01T00:46:56;1.57;;;0.70;;
12385;SDS011;6257;57.634;18.310;2023-03-01T00:49:23;1.90;;;1.20;;
12385;SDS011;6257;57.634;18.310;2023-03-01T00:51:52;2.33;;;0.90;;
12385;SDS011;6257;57.634;18.310;2023-03-01T00:54:20;1.63;;;0.80;;
12385;SDS011;6257;57.634;18.310;2023-03-01T00:56:47;0.77;;;0.70;;
12385;SDS011;6257;57.634;18.310;2023-03-01T00:59:15;1.70;;;0.80;;
12385;SDS011;6257;57.634;18.310;2023-03-01T01:01:42;1.43;;;0.70;;
12385;SDS011;6257;57.634;18.310;2023-03-01T01:04:10;2.40;;;0.70;;
12385;SDS011;6257;57.634;18.310;2023-03-01T01:06:39;1.27;;;0.70;;
12385;SDS011;6257;57.634;18.310;2023-03-01T01:09:08;0.93;;;0.73;;
12385;SDS011;6257;57.634;18.310;2023-03-01T01:11:42;0.80;;;0.70;;
12385;SDS011;6257;57.634;18.310;2023-03-01T01:14:10;1.73;;;0.67;;
12385;SDS011;6257;57.634;18.310;2023-03-01T01:16:38;3.23;;;0.90;;
12385;SDS011;6257;57.634;18.310;2023-03-01T01:19:06;1.53;;;0.77;;
12385;SDS011;6257;57.634;18.310;2023-03-01T01:21:33;1.90;;;0.77;;
12385;SDS011;6257;57.634;18.310;2023-03-01T01:24:02;1.43;;;0.80;;
12385;SDS011;6257;57.634;18.310;2023-03-01T01:26:30;1.87;;;0.87;;
12385;SDS011;6257;57.634;18.310;2023-03-01T01:28:58;1.70;;;0.80;;
12385;SDS011;6257;57.634;18.310;2023-03-01T01:31:27;1.90;;;0.70;;
12385;SDS011;6257;57.634;18.310;2023-03-01T01:33:56;1.30;;;0.77;;
12385;SDS011;6257;57.634;18.310;2023-03-01T01:36:24;3.90;;;0.70;;
12385;SDS011;6257;57.634;18.310;2023-03-01T01:38:51;2.13;;;0.90;;
12385;SDS011;6257;57.634;18.310;2023-03-01T01:41:18;2.00;;;0.80;;
12385;SDS011;6257;57.634;18.310;2023-03-01T01:43:48;1.57;;;0.60;;
12385;SDS011;6257;57.634;18.310;2023-03-01T01:46:35;3.87;;;0.70;;
12385;SDS011;6257;57.634;18.310;2023-03-01T01:49:06;1.63;;;0.60;;
12385;SDS011;6257;57.634;18.310;2023-03-01T01:51:38;1.57;;;0.70;;
12385;SDS011;6257;57.634;18.310;2023-03-01T01:54:10;1.13;;;0.60;;
12385;SDS011;6257;57.634;18.310;2023-03-01T01:56:42;0.93;;;0.40;;
12385;SDS011;6257;57.634;18.310;2023-03-01T01:59:14;1.97;;;0.63;;
12385;SDS011;6257;57.634;18.310;2023-03-01T02:01:42;1.23;;;0.63;;
12385;SDS011;6257;57.634;18.310;2023-03-01T02:04:11;1.03;;;0.80;;
12385;SDS011;6257;57.634;18.310;2023-03-01T02:06:39;2.97;;;0.93;;
12385;SDS011;6257;57.634;18.310;2023-03-01T02:09:12;1.50;;;0.70;;
12385;SDS011;6257;57.634;18.310;2023-03-01T02:11:41;2.73;;;0.60;;
12385;SDS011;6257;57.634;18.310;2023-03-01T02:14:10;2.83;;;0.60;;
12385;SDS011;6257;57.634;18.310;2023-03-01T02:16:37;1.87;;;0.53;;
12385;SDS011;6257;57.634;18.310;2023-03-01T02:19:04;0.63;;;0.50;;
12385;SDS011;6257;57.634;18.310;2023-03-01T02:21:37;3.20;;;0.70;;
12385;SDS011;6257;57.634;18.310;2023-03-01T02:24:14;1.40;;;0.50;;
12385;SDS011;6257;57.634;18.310;2023-03-01T02:26:51;1.67;;;0.80;;
12385;SDS011;6257;57.634;18.310;2023-03-01T02:29:22;4.10;;;0.80;;
12385;SDS011;6257;57.634;18.310;2023-03-01T02:31:51;1.03;;;0.50;;
12385;SDS011;6257;57.634;18.310;2023-03-01T02:34:22;2.73;;;0.60;;
12385;SDS011;6257;57.634;18.310;2023-03-01T02:36:52;1.13;;;0.53;;
12385;SDS011;6257;57.634;18.310;2023-03-01T02:39:23;0.93;;;0.60;;
12385;SDS011;6257;57.634;18.310;2023-03-01T02:41:54;2.23;;;0.77;;
12385;SDS011;6257;57.634;18.310;2023-03-01T02:44:24;2.20;;;0.57;;
12385;SDS011;6257;57.634;18.310;2023-03-01T02:46:52;1.30;;;0.70;;
12385;SDS011;6257;57.634;18.310;2023-03-01T02:49:21;1.80;;;0.50;;
12385;SDS011;6257;57.634;18.310;2023-03-01T02:54:39;1.37;;;0.40;;
12385;SDS011;6257;57.634;18.310;2023-03-01T02:57:10;1.47;;;0.67;;
12385;SDS011;6257;57.634;18.310;2023-03-01T02:59:39;1.07;;;0.50;;
12385;SDS011;6257;57.634;18.310;2023-03-01T03:02:08;1.30;;;0.60;;
12385;SDS011;6257;57.634;18.310;2023-03-01T03:04:47;1.63;;;0.80;;
12385;SDS011;6257;57.634;18.310;2023-03-01T03:07:14;1.37;;;0.70;;
12385;SDS011;6257;57.634;18.310;2023-03-01T03:09:41;1.03;;;0.50;;
12385;SDS011;6257;57.634;18.310;2023-03-01T03:12:08;2.57;;;0.60;;
12385;SDS011;6257;57.634;18.310;2023-03-01T03:14:36;3.70;;;0.70;;
12385;SDS011;6257;57.634;18.310;2023-03-01T03:17:04;2.40;;;0.77;;
12385;SDS011;6257;57.634;18.310;2023-03-01T03:19:31;3.83;;;0.80;;
12385;SDS011;6257;57.634;18.310;2023-03-01T03:21:58;3.20;;;0.90;;
12385;SDS011;6257;57.634;18.310;2023-03-01T03:24:26;1.63;;;0.70;;
12385;SDS011;6257;57.634;18.310;2023-03-01T03:27:03;1.53;;;0.83;;
12385;SDS011;6257;57.634;18.310;2023-03-01T03:29:30;1.23;;;0.60;;
12385;SDS011;6257;57.634;18.310;2023-03-01T03:31:57;1.30;;;0.70;;
12385;SDS011;6257;57.634;18.310;2023-03-01T03:34:26;2.73;;;0.73;;
12385;SDS011;6257;57.634;18.310;2023-03-01T03:36:53;1.40;;;0.80;;
12385;SDS011;6257;57.634;18.310;2023-03-01T03:39:21;1.20;;;0.60;;
12385;SDS011;6257;57.634;18.310;2023-03-01T03:41:49;1.87;;;0.67;;
12385;SDS011;6257;57.634;18.310;2023-03-01T03:44:16;1.13;;;0.70;;
12385;SDS011;6257;57.634;18.310;2023-03-01T03:46:43;2.23;;;0.80;;
12385;SDS011;6257;57.634;18.310;2023-03-01T03:49:10;2.57;;;0.73;;
12385;SDS011;6257;57.634;18.310;2023-03-01T03:51:38;4.17;;;0.83;;
12385;SDS011;6257;57.634;18.310;2023-03-01T03:54:05;1.97;;;0.60;;
12385;SDS011;6257;57.634;18.310;2023-03-01T03:56:32;2.30;;;0.77;;
12385;SDS011;6257;57.634;18.310;2023-03-01T03:59:00;2.57;;;0.60;;
12385;SDS011;6257;57.634;18.310;2023-03-01T04:01:27;6.57;;;0.87;;
12385;SDS011;6257;57.634;18.310;2023-03-01T04:03:54;2.80;;;0.90;;
12385;SDS011;6257;57.634;18.310;2023-03-01T04:06:21;2.83;;;0.93;;
12385;SDS011;6257;57.634;18.310;2023-03-01T04:08:49;4.27;;;0.83;;
12385;SDS011;6257;57.634;18.310;2023-03-01T04:11:23;2.20;;;0.70;;
12385;SDS011;6257;57.634;18.310;2023-03-01T04:13:54;2.83;;;0.97;;
12385;SDS011;6257;57.634;18.310;2023-03-01T04:16:22;7.20;;;1.17;;
12385;SDS011;6257;57.634;18.310;2023-03-01T04:18:50;5.53;;;1.40;;
12385;SDS011;6257;57.634;18.310;2023-03-01T04:21:18;5.50;;;1.30;;
12385;SDS011;6257;57.634;18.310;2023-03-01T04:23:45;6.53;;;2.30;;
12385;SDS011;6257;57.634;18.310;2023-03-01T04:26:14;3.53;;;1.33;;
12385;SDS011;6257;57.634;18.310;2023-03-01T04:28:41;4.77;;;0.97;;
12385;SDS011;6257;57.634;18.310;2023-03-01T04:31:11;3.73;;;1.10;;
12385;SDS011;6257;57.634;18.310;2023-03-01T04:33:39;6.63;;;1.10;;
12385;SDS011;6257;57.634;18.310;2023-03-01T04:36:08;2.90;;;0.80;;
12385;SDS011;6257;57.634;18.310;2023-03-01T04:38:36;0.93;;;0.67;;
12385;SDS011;6257;57.634;18.310;2023-03-01T04:41:04;4.50;;;1.10;;
12385;SDS011;6257;57.634;18.310;2023-03-01T04:43:34;4.30;;;1.10;;
12385;SDS011;6257;57.634;18.310;2023-03-01T04:46:01;6.50;;;1.00;;
12385;SDS011;6257;57.634;18.310;2023-03-01T04:48:29;3.27;;;0.90;;
12385;SDS011;6257;57.634;18.310;2023-03-01T04:50:57;4.60;;;1.00;;
12385;SDS011;6257;57.634;18.310;2023-03-01T04:53:25;4.37;;;1.00;;
12385;SDS011;6257;57.634;18.310;2023-03-01T04:55:53;3.43;;;0.67;;
12385;SDS011;6257;57.634;18.310;2023-03-01T04:58:20;7.17;;;1.20;;
12385;SDS011;6257;57.634;18.310;2023-03-01T05:00:49;3.70;;;0.73;;
12385;SDS011;6257;57.634;18.310;2023-03-01T05:03:16;3.07;;;0.90;;
12385;SDS011;6257;57.634;18.310;2023-03-01T05:05:44;4.33;;;0.90;;
12385;SDS011;6257;57.634;18.310;2023-03-01T05:08:12;3.07;;;1.03;;
12385;SDS011;6257;57.634;18.310;2023-03-01T05:10:43;3.53;;;1.23;;
12385;SDS011;6257;57.634;18.310;2023-03-01T05:13:12;4.40;;;1.23;;
12385;SDS011;6257;57.634;18.310;2023-03-01T05:15:44;2.43;;;0.90;;
12385;SDS011;6257;57.634;18.310;2023-03-01T05:18:12;4.53;;;0.90;;
12385;SDS011;6257;57.634;18.310;2023-03-01T05:20:40;5.13;;;1.40;;
12385;SDS011;6257;57.634;18.310;2023-03-01T05:23:07;4.40;;;1.77;;
12385;SDS011;6257;57.634;18.310;2023-03-01T05:25:34;2.90;;;1.30;;
12385;SDS011;6257;57.634;18.310;2023-03-01T05:28:05;6.47;;;1.17;;
12385;SDS011;6257;57.634;18.310;2023-03-01T05:30:34;3.60;;;0.90;;
12385;SDS011;6257;57.634;18.310;2023-03-01T05:33:04;3.20;;;1.20;;
12385;SDS011;6257;57.634;18.310;2023-03-01T05:35:36;3.27;;;1.03;;
12385;SDS011;6257;57.634;18.310;2023-03-01T05:38:03;4.37;;;0.97;;
12385;SDS011;6257;57.634;18.310;2023-03-01T05:40:32;3.90;;;0.87;;
12385;SDS011;6257;57.634;18.310;2023-03-01T05:43:00;2.70;;;0.77;;
12385;SDS011;6257;57.634;18.310;2023-03-01T05:45:30;8.07;;;5.13;;
12385;SDS011;6257;57.634;18.310;2023-03-01T05:47:58;8.37;;;4.33;;
12385;SDS011;6257;57.634;18.310;2023-03-01T05:50:26;11.90;;;6.73;;
12385;SDS011;6257;57.634;18.310;2023-03-01T05:52:58;6.10;;;4.17;;
12385;SDS011;6257;57.634;18.310;2023-03-01T05:55:26;7.67;;;4.37;;
12385;SDS011;6257;57.634;18.310;2023-03-01T05:57:55;6.87;;;4.07;;
12385;SDS011;6257;57.634;18.310;2023-03-01T06:00:24;6.47;;;3.50;;
12385;SDS011;6257;57.634;18.310;2023-03-01T06:02:52;5.73;;;1.13;;
12385;SDS011;6257;57.634;18.310;2023-03-01T06:05:20;6.80;;;2.37;;
12385;SDS011;6257;57.634;18.310;2023-03-01T06:07:47;3.90;;;1.97;;
12385;SDS011;6257;57.634;18.310;2023-03-01T06:10:16;5.83;;;2.80;;
12385;SDS011;6257;57.634;18.310;2023-03-01T06:12:45;5.07;;;2.17;;
12385;SDS011;6257;57.634;18.310;2023-03-01T06:15:13;9.33;;;2.53;;
12385;SDS011;6257;57.634;18.310;2023-03-01T06:17:42;8.93;;;2.20;;
12385;SDS011;6257;57.634;18.310;2023-03-01T06:20:11;4.03;;;1.93;;
12385;SDS011;6257;57.634;18.310;2023-03-01T06:22:40;7.07;;;1.13;;
12385;SDS011;6257;57.634;18.310;2023-03-01T06:25:08;1.93;;;0.60;;
12385;SDS011;6257;57.634;18.310;2023-03-01T06:27:39;3.50;;;1.33;;
12385;SDS011;6257;57.634;18.310;2023-03-01T06:30:07;4.53;;;0.80;;
12385;SDS011;6257;57.634;18.310;2023-03-01T06:32:35;3.23;;;0.90;;
12385;SDS011;6257;57.634;18.310;2023-03-01T06:35:03;5.30;;;1.03;;
12385;SDS011;6257;57.634;18.310;2023-03-01T06:37:30;7.17;;;1.07;;
12385;SDS011;6257;57.634;18.310;2023-03-01T06:39:57;9.50;;;1.20;;
12385;SDS011;6257;57.634;18.310;2023-03-01T06:42:24;5.23;;;1.40;;
12385;SDS011;6257;57.634;18.310;2023-03-01T06:44:53;2.67;;;1.10;;
12385;SDS011;6257;57.634;18.310;2023-03-01T06:47:20;4.97;;;1.67;;
12385;SDS011;6257;57.634;18.310;2023-03-01T06:49:47;6.63;;;1.30;;
12385;SDS011;6257;57.634;18.310;2023-03-01T06:52:14;4.00;;;1.00;;
12385;SDS011;6257;57.634;18.310;2023-03-01T06:54:41;4.50;;;1.00;;
12385;SDS011;6257;57.634;18.310;2023-03-01T06:57:08;5.47;;;1.03;;
12385;SDS011;6257;57.634;18.310;2023-03-01T06:59:35;1.77;;;0.80;;
12385;SDS011;6257;57.634;18.310;2023-03-01T07:02:04;3.57;;;0.83;;
12385;SDS011;6257;57.634;18.310;2023-03-01T07:04:31;2.07;;;0.83;;
12385;SDS011;6257;57.634;18.310;2023-03-01T07:06:58;4.73;;;0.80;;
12385;SDS011;6257;57.634;18.310;2023-03-01T07:09:25;4.77;;;0.83;;
12385;SDS011;6257;57.634;18.310;2023-03-01T07:11:52;2.67;;;0.60;;
12385;SDS011;6257;57.634;18.310;2023-03-01T07:14:19;2.63;;;0.63;;
12385;SDS011;6257;57.634;18.310;2023-03-01T07:16:46;4.57;;;1.27;;
12385;SDS011;6257;57.634;18.310;2023-03-01T07:19:14;1.67;;;0.70;;
12385;SDS011;6257;57.634;18.310;2023-03-01T07:21:41;4.20;;;0.97;;
12385;SDS011;6257;57.634;18.310;2023-03-01T07:24:09;3.47;;;0.90;;
12385;SDS011;6257;57.634;18.310;2023-03-01T07:26:36;3.27;;;0.80;;
12385;SDS011;6257;57.634;18.310;2023-03-01T07:29:04;4.17;;;0.70;;
12385;SDS011;6257;57.634;18.310;2023-03-01T07:31:33;1.53;;;0.80;;
12385;SDS011;6257;57.634;18.310;2023-03-01T07:34:00;3.77;;;0.90;;
12385;SDS011;6257;57.634;18.310;2023-03-01T07:36:29;2.37;;;0.67;;
12385;SDS011;6257;57.634;18.310;2023-03-01T07:38:56;4.07;;;0.70;;
12385;SDS011;6257;57.634;18.310;2023-03-01T07:41:23;2.23;;;0.70;;
12385;SDS011;6257;57.634;18.310;2023-03-01T07:43:50;3.57;;;0.67;;
12385;SDS011;6257;57.634;18.310;2023-03-01T07:46:17;3.13;;;0.73;;
12385;SDS011;6257;57.634;18.310;2023-03-01T07:48:44;3.67;;;0.73;;
12385;SDS011;6257;57.634;18.310;2023-03-01T07:51:12;4.37;;;0.80;;
12385;SDS011;6257;57.634;18.310;2023-03-01T07:53:41;1.50;;;0.60;;
12385;SDS011;6257;57.634;18.310;2023-03-01T07:56:08;4.07;;;0.83;;
12385;SDS011;6257;57.634;18.310;2023-03-01T07:58:37;2.80;;;0.67;;
12385;SDS011;6257;57.634;18.310;2023-03-01T08:01:07;2.40;;;0.80;;
12385;SDS011;6257;57.634;18.310;2023-03-01T08:03:35;4.50;;;0.80;;
12385;SDS011;6257;57.634;18.310;2023-03-01T08:06:03;2.73;;;1.10;;
12385;SDS011;6257;57.634;18.310;2023-03-01T08:08:32;1.30;;;0.70;;
12385;SDS011;6257;57.634;18.310;2023-03-01T08:11:01;2.57;;;0.93;;
12385;SDS011;6257;57.634;18.310;2023-03-01T08:13:30;2.00;;;0.90;;
12385;SDS011;6257;57.634;18.310;2023-03-01T08:16:00;2.00;;;0.70;;
12385;SDS011;6257;57.634;18.310;2023-03-01T08:18:28;2.53;;;0.80;;
12385;SDS011;6257;57.634;18.310;2023-03-01T08:20:55;3.73;;;0.80;;
12385;SDS011;6257;57.634;18.310;2023-03-01T08:23:27;1.90;;;0.77;;
12385;SDS011;6257;57.634;18.310;2023-03-01T08:25:55;2.07;;;0.60;;
12385;SDS011;6257;57.634;18.310;2023-03-01T08:28:31;2.90;;;0.70;;
12385;SDS011;6257;57.634;18.310;2023-03-01T08:30:58;2.03;;;1.03;;
12385;SDS011;6257;57.634;18.310;2023-03-01T08:33:25;3.67;;;1.10;;
12385;SDS011;6257;57.634;18.310;2023-03-01T08:35:52;3.13;;;0.70;;
12385;SDS011;6257;57.634;18.310;2023-03-01T08:38:27;3.60;;;0.70;;
12385;SDS011;6257;57.634;18.310;2023-03-01T08:40:54;1.17;;;0.60;;
12385;SDS011;6257;57.634;18.310;2023-03-01T08:43:23;3.43;;;0.60;;
12385;SDS011;6257;57.634;18.310;2023-03-01T08:45:50;2.93;;;0.70;;
12385;SDS011;6257;57.634;18.310;2023-03-01T08:48:17;1.67;;;0.60;;
12385;SDS011;6257;57.634;18.310;2023-03-01T08:50:45;4.23;;;0.70;;
12385;SDS011;6257;57.634;18.310;2023-03-01T08:53:12;4.83;;;1.40;;
12385;SDS011;6257;57.634;18.310;2023-03-01T08:55:39;2.70;;;0.70;;
12385;SDS011;6257;57.634;18.310;2023-03-01T08:58:06;4.13;;;0.80;;
12385;SDS011;6257;57.634;18.310;2023-03-01T09:00:34;8.10;;;0.93;;
12385;SDS011;6257;57.634;18.310;2023-03-01T09:03:02;7.13;;;0.90;;
12385;SDS011;6257;57.634;18.310;2023-03-01T09:05:30;3.00;;;1.03;;
12385;SDS011;6257;57.634;18.310;2023-03-01T09:07:58;10.47;;;1.17;;
12385;SDS011;6257;57.634;18.310;2023-03-01T09:10:25;9.20;;;1.07;;
12385;SDS011;6257;57.634;18.310;2023-03-01T09:12:52;6.70;;;1.10;;
12385;SDS011;6257;57.634;18.310;2023-03-01T09:15:19;6.80;;;0.90;;
12385;SDS011;6257;57.634;18.310;2023-03-01T09:17:48;5.50;;;0.90;;
12385;SDS011;6257;57.634;18.310;2023-03-01T09:20:15;3.80;;;0.97;;
12385;SDS011;6257;57.634;18.310;2023-03-01T09:22:42;10.00;;;1.30;;
12385;SDS011;6257;57.634;18.310;2023-03-01T09:25:09;7.43;;;1.00;;
12385;SDS011;6257;57.634;18.310;2023-03-01T09:27:36;13.20;;;1.80;;
12385;SDS011;6257;57.634;18.310;2023-03-01T09:30:04;8.37;;;1.00;;
12385;SDS011;6257;57.634;18.310;2023-03-01T09:32:31;6.10;;;0.57;;
12385;SDS011;6257;57.634;18.310;2023-03-01T09:35:00;26.00;;;3.07;;
12385;SDS011;6257;57.634;18.310;2023-03-01T09:37:29;10.87;;;1.43;;
12385;SDS011;6257;57.634;18.310;2023-03-01T09:39:58;4.20;;;1.00;;
12385;SDS011;6257;57.634;18.310;2023-03-01T09:42:25;21.83;;;2.33;;
12385;SDS011;6257;57.634;18.310;2023-03-01T09:44:54;16.37;;;2.00;;
12385;SDS011;6257;57.634;18.310;2023-03-01T09:47:26;10.33;;;1.43;;
12385;SDS011;6257;57.634;18.310;2023-03-01T09:50:02;5.87;;;1.37;;
12385;SDS011;6257;57.634;18.310;2023-03-01T09:52:33;24.80;;;2.10;;
12385;SDS011;6257;57.634;18.310;2023-03-01T09:55:08;27.23;;;1.97;;
12385;SDS011;6257;57.634;18.310;2023-03-01T09:57:40;3.63;;;0.80;;
12385;SDS011;6257;57.634;18.310;2023-03-01T10:00:15;16.50;;;1.53;;
12385;SDS011;6257;57.634;18.310;2023-03-01T10:02:57;3.77;;;1.00;;
12385;SDS011;6257;57.634;18.310;2023-03-01T10:05:34;3.90;;;0.83;;
12385;SDS011;6257;57.634;18.310;2023-03-01T10:08:19;4.23;;;0.80;;
12385;SDS011;6257;57.634;18.310;2023-03-01T10:10:56;17.57;;;1.43;;
12385;SDS011;6257;57.634;18.310;2023-03-01T10:13:25;4.33;;;1.27;;
12385;SDS011;6257;57.634;18.310;2023-03-01T10:15:59;17.83;;;1.93;;
12385;SDS011;6257;57.634;18.310;2023-03-01T10:18:30;8.20;;;1.33;;
12385;SDS011;6257;57.634;18.310;2023-03-01T10:21:08;26.23;;;3.77;;
12385;SDS011;6257;57.634;18.310;2023-03-01T10:23:41;20.03;;;2.30;;
12385;SDS011;6257;57.634;18.310;2023-03-01T10:26:14;9.40;;;1.20;;
12385;SDS011;6257;57.634;18.310;2023-03-01T10:28:55;9.30;;;1.30;;
12385;SDS011;6257;57.634;18.310;2023-03-01T10:31:32;7.37;;;0.97;;
12385;SDS011;6257;57.634;18.310;2023-03-01T10:34:08;10.90;;;1.50;;
12385;SDS011;6257;57.634;18.310;2023-03-01T10:36:39;6.10;;;0.93;;
12385;SDS011;6257;57.634;18.310;2023-03-01T10:39:11;20.93;;;2.73;;
12385;SDS011;6257;57.634;18.310;2023-03-01T10:41:44;28.77;;;2.47;;
12385;SDS011;6257;57.634;18.310;2023-03-01T10:44:35;14.07;;;1.17;;
12385;SDS011;6257;57.634;18.310;2023-03-01T10:47:04;26.30;;;2.83;;
12385;SDS011;6257;57.634;18.310;2023-03-01T10:49:31;35.13;;;4.87;;
12385;SDS011;6257;57.634;18.310;2023-03-01T10:52:10;7.37;;;1.53;;
12385;SDS011;6257;57.634;18.310;2023-03-01T10:54:50;16.27;;;1.90;;
12385;SDS011;6257;57.634;18.310;2023-03-01T10:57:24;30.87;;;2.87;;
12385;SDS011;6257;57.634;18.310;2023-03-01T11:00:13;5.83;;;1.10;;
12385;SDS011;6257;57.634;18.310;2023-03-01T11:02:51;2.17;;;0.60;;
12385;SDS011;6257;57.634;18.310;2023-03-01T11:05:30;16.87;;;1.53;;
12385;SDS011;6257;57.634;18.310;2023-03-01T11:08:00;10.13;;;1.33;;
12385;SDS011;6257;57.634;18.310;2023-03-01T11:10:30;1.23;;;0.50;;
12385;SDS011;6257;57.634;18.310;2023-03-01T11:13:08;3.17;;;0.73;;
12385;SDS011;6257;57.634;18.310;2023-03-01T11:15:40;8.60;;;1.60;;
12385;SDS011;6257;57.634;18.310;2023-03-01T11:18:17;2.97;;;0.70;;
12385;SDS011;6257;57.634;18.310;2023-03-01T11:20:46;7.57;;;1.10;;
12385;SDS011;6257;57.634;18.310;2023-03-01T11:23:16;2.33;;;0.80;;
12385;SDS011;6257;57.634;18.310;2023-03-01T11:25:47;5.20;;;0.80;;
12385;SDS011;6257;57.634;18.310;2023-03-01T11:28:19;1.83;;;0.50;;
12385;SDS011;6257;57.634;18.310;2023-03-01T11:30:50;1.87;;;0.70;;
12385;SDS011;6257;57.634;18.310;2023-03-01T11:33:24;3.83;;;0.80;;
12385;SDS011;6257;57.634;18.310;2023-03-01T11:36:02;2.70;;;0.70;;
12385;SDS011;6257;57.634;18.310;2023-03-01T11:38:35;5.57;;;0.87;;
12385;SDS011;6257;57.634;18.310;2023-03-01T11:41:05;5.63;;;1.13;;
12385;SDS011;6257;57.634;18.310;2023-03-01T11:43:37;4.47;;;0.73;;
12385;SDS011;6257;57.634;18.310;2023-03-01T11:46:29;2.40;;;0.60;;
12385;SDS011;6257;57.634;18.310;2023-03-01T11:49:12;9.37;;;1.60;;
12385;SDS011;6257;57.634;18.310;2023-03-01T11:52:09;22.50;;;2.00;;
12385;SDS011;6257;57.634;18.310;2023-03-01T11:54:52;27.70;;;2.93;;
12385;SDS011;6257;57.634;18.310;2023-03-01T11:57:45;20.57;;;2.03;;
12385;SDS011;6257;57.634;18.310;2023-03-01T12:00:26;21.13;;;2.23;;
12385;SDS011;6257;57.634;18.310;2023-03-01T12:06:09;6.60;;;0.80;;
12385;SDS011;6257;57.634;18.310;2023-03-01T12:08:49;2.63;;;0.77;;
12385;SDS011;6257;57.634;18.310;2023-03-01T12:11:33;4.00;;;0.80;;
12385;SDS011;6257;57.634;18.310;2023-03-01T12:14:23;9.80;;;1.73;;
12385;SDS011;6257;57.634;18.310;2023-03-01T12:17:26;5.90;;;0.60;;
12385;SDS011;6257;57.634;18.310;2023-03-01T12:20:09;3.27;;;0.70;;
12385;SDS011;6257;57.634;18.310;2023-03-01T12:22:46;1.63;;;1.00;;
12385;SDS011;6257;57.634;18.310;2023-03-01T12:25:27;4.73;;;0.70;;
12385;SDS011;6257;57.634;18.310;2023-03-01T12:33:54;6.97;;;1.40;;
12385;SDS011;6257;57.634;18.310;2023-03-01T12:36:34;1.73;;;0.57;;
12385;SDS011;6257;57.634;18.310;2023-03-01T12:39:15;3.53;;;0.73;;
12385;SDS011;6257;57.634;18.310;2023-03-01T12:42:04;3.57;;;0.70;;
12385;SDS011;6257;57.634;18.310;2023-03-01T12:44:45;5.47;;;0.80;;
12385;SDS011;6257;57.634;18.310;2023-03-01T12:47:43;4.43;;;1.17;;
12385;SDS011;6257;57.634;18.310;2023-03-01T12:50:23;6.97;;;1.20;;
12385;SDS011;6257;57.634;18.310;2023-03-01T12:52:55;2.17;;;0.67;;
12385;SDS011;6257;57.634;18.310;2023-03-01T12:55:29;8.53;;;1.20;;
12385;SDS011;6257;57.634;18.310;2023-03-01T12:58:01;3.50;;;0.80;;
12385;SDS011;6257;57.634;18.310;2023-03-01T13:00:38;5.03;;;1.13;;
12385;SDS011;6257;57.634;18.310;2023-03-01T13:03:14;2.07;;;0.60;;
12385;SDS011;6257;57.634;18.310;2023-03-01T13:05:54;10.73;;;0.83;;
12385;SDS011;6257;57.634;18.310;2023-03-01T13:08:31;3.17;;;0.87;;
12385;SDS011;6257;57.634;18.310;2023-03-01T13:11:11;2.83;;;0.60;;
12385;SDS011;6257;57.634;18.310;2023-03-01T13:13:42;5.77;;;0.83;;
12385;SDS011;6257;57.634;18.310;2023-03-01T13:16:38;5.37;;;0.80;;
12385;SDS011;6257;57.634;18.310;2023-03-01T13:19:08;3.83;;;0.80;;
12385;SDS011;6257;57.634;18.310;2023-03-01T13:21:40;1.60;;;0.60;;
12385;SDS011;6257;57.634;18.310;2023-03-01T13:27:08;4.20;;;0.87;;
12385;SDS011;6257;57.634;18.310;2023-03-01T13:29:55;3.93;;;0.80;;
12385;SDS011;6257;57.634;18.310;2023-03-01T13:32:26;3.77;;;0.80;;
12385;SDS011;6257;57.634;18.310;2023-03-01T13:34:55;3.37;;;0.80;;
12385;SDS011;6257;57.634;18.310;2023-03-01T13:37:32;3.40;;;0.70;;
12385;SDS011;6257;57.634;18.310;2023-03-01T13:40:05;2.90;;;0.70;;
12385;SDS011;6257;57.634;18.310;2023-03-01T13:42:51;11.43;;;1.27;;
12385;SDS011;6257;57.634;18.310;2023-03-01T13:45:20;4.13;;;0.90;;
12385;SDS011;6257;57.634;18.310;2023-03-01T13:47:54;3.03;;;0.80;;
12385;SDS011;6257;57.634;18.310;2023-03-01T13:50:25;1.20;;;0.60;;
12385;SDS011;6257;57.634;18.310;2023-03-01T13:52:55;1.03;;;0.60;;
12385;SDS011;6257;57.634;18.310;2023-03-01T13:55:26;3.13;;;0.80;;
12385;SDS011;6257;57.634;18.310;2023-03-01T13:58:02;12.57;;;1.27;;
12385;SDS011;6257;57.634;18.310;2023-03-01T14:00:32;5.50;;;1.00;;
12385;SDS011;6257;57.634;18.310;2023-03-01T14:03:14;3.03;;;1.50;;
12385;SDS011;6257;57.634;18.310;2023-03-01T14:05:56;4.30;;;1.10;;
12385;SDS011;6257;57.634;18.310;2023-03-01T14:08:26;9.10;;;2.13;;
12385;SDS011;6257;57.634;18.310;2023-03-01T14:11:09;5.33;;;0.93;;
12385;SDS011;6257;57.634;18.310;2023-03-01T14:14:03;2.87;;;0.80;;
12385;SDS011;6257;57.634;18.310;2023-03-01T14:17:01;4.40;;;1.20;;
12385;SDS011;6257;57.634;18.310;2023-03-01T14:19:41;7.17;;;0.80;;
12385;SDS011;6257;57.634;18.310;2023-03-01T14:22:13;11.03;;;1.30;;
12385;SDS011;6257;57.634;18.310;2023-03-01T14:24:46;8.33;;;1.47;;
12385;SDS011;6257;57.634;18.310;2023-03-01T14:27:15;10.77;;;1.60;;
12385;SDS011;6257;57.634;18.310;2023-03-01T14:29:43;12.10;;;1.60;;
12385;SDS011;6257;57.634;18.310;2023-03-01T14:32:21;6.33;;;0.93;;
12385;SDS011;6257;57.634;18.310;2023-03-01T14:34:52;5.07;;;1.10;;
12385;SDS011;6257;57.634;18.310;2023-03-01T14:37:21;11.50;;;1.47;;
12385;SDS011;6257;57.634;18.310;2023-03-01T14:39:51;11.80;;;1.33;;
12385;SDS011;6257;57.634;18.310;2023-03-01T14:42:18;10.30;;;1.30;;
12385;SDS011;6257;57.634;18.310;2023-03-01T14:44:47;13.93;;;1.80;;
12385;SDS011;6257;57.634;18.310;2023-03-01T14:47:19;8.03;;;1.73;;
12385;SDS011;6257;57.634;18.310;2023-03-01T14:49:57;10.00;;;1.60;;
12385;SDS011;6257;57.634;18.310;2023-03-01T14:52:30;11.03;;;1.73;;
12385;SDS011;6257;57.634;18.310;2023-03-01T14:55:01;8.13;;;1.40;;
12385;SDS011;6257;57.634;18.310;2023-03-01T14:57:31;12.77;;;1.80;;
12385;SDS011;6257;57.634;18.310;2023-03-01T14:59:59;11.53;;;1.67;;
12385;SDS011;6257;57.634;18.310;2023-03-01T15:02:30;11.17;;;1.50;;
12385;SDS011;6257;57.634;18.310;2023-03-01T15:05:01;5.27;;;0.90;;
12385;SDS011;6257;57.634;18.310;2023-03-01T15:07:31;8.37;;;1.67;;
12385;SDS011;6257;57.634;18.310;2023-03-01T15:10:00;12.53;;;2.00;;
12385;SDS011;6257;57.634;18.310;2023-03-01T15:12:39;8.50;;;1.00;;
12385;SDS011;6257;57.634;18.310;2023-03-01T15:15:30;6.80;;;1.33;;
12385;SDS011;6257;57.634;18.310;2023-03-01T15:18:00;8.53;;;2.00;;
12385;SDS011;6257;57.634;18.310;2023-03-01T15:20:30;11.33;;;1.33;;
12385;SDS011;6257;57.634;18.310;2023-03-01T15:23:00;10.20;;;1.20;;